JAL90 UEEE-RJCC
Flight info
| Callsign | JAL90 |
|---|---|
| Flight time | N/A |
| Altitude | 37000 |
| Route | OGLIS6E OGLIS B148 ODANA M131 AKSUN/N0484F370 A204 RSE Y104 YOROI V1 KURIS |
| Aircraft | B77W/H-SDE1E2E3FGHIJ2J3J4J5M1RWXY/LB1D1 |
Departure
| Time | 2026-04-30 14:23 |
|---|---|
| Airport | Platon Oyunsky Yakutsk International Airport (UEEE) |
Arrival
| Time | N/A |
|---|---|
| Airport | New Chitose Airport (RJCC) |
| Time | Latitude | Longitude | Altitude | Speed | Heading |
|---|---|---|---|---|---|
| 2026-04-30 14:00 | 62.08988 | 129.75746 | 311 ft | 0 kts | 301° |
| 2026-04-30 14:18 | 62.09009 | 129.75667 | 311 ft | 9 kts | 292° |
| 2026-04-30 14:18 | 62.08980 | 129.75560 | 314 ft | 12 kts | 214° |
| 2026-04-30 14:18 | 62.08815 | 129.75356 | 314 ft | 8 kts | 210° |
| 2026-04-30 14:19 | 62.08690 | 129.75536 | 312 ft | 14 kts | 119° |
| 2026-04-30 14:19 | 62.08638 | 129.75726 | 311 ft | 13 kts | 122° |
| 2026-04-30 14:19 | 62.08592 | 129.75874 | 311 ft | 13 kts | 125° |
| 2026-04-30 14:20 | 62.08535 | 129.76038 | 309 ft | 12 kts | 128° |
| 2026-04-30 14:20 | 62.08458 | 129.76080 | 308 ft | 13 kts | 207° |
| 2026-04-30 14:20 | 62.08311 | 129.75835 | 311 ft | 13 kts | 242° |
| 2026-04-30 14:21 | 62.08278 | 129.75679 | 311 ft | 9 kts | 226° |
| 2026-04-30 14:21 | 62.08224 | 129.75645 | 312 ft | 8 kts | 149° |
| 2026-04-30 14:21 | 62.08268 | 129.75787 | 312 ft | 6 kts | 37° |
| 2026-04-30 14:22 | 62.08310 | 129.75853 | 311 ft | 16 kts | 37° |
| 2026-04-30 14:22 | 62.09322 | 129.77477 | 324 ft | 158 kts | 36° |
| 2026-04-30 14:22 | 62.10253 | 129.78973 | 807 ft | 177 kts | 35° |
| 2026-04-30 14:23 | 62.12270 | 129.82193 | 2480 ft | 186 kts | 36° |
| 2026-04-30 14:23 | 62.14468 | 129.85730 | 3500 ft | 215 kts | 37° |
| 2026-04-30 14:24 | 62.17042 | 129.89874 | 4513 ft | 247 kts | 36° |
| 2026-04-30 14:24 | 62.18408 | 129.92165 | 5186 ft | 255 kts | 44° |
| 2026-04-30 14:25 | 62.19685 | 129.99083 | 6776 ft | 266 kts | 92° |
| 2026-04-30 14:25 | 62.18105 | 130.06146 | 8334 ft | 274 kts | 127° |
| 2026-04-30 14:26 | 62.15745 | 130.12633 | 9890 ft | 282 kts | 126° |
| 2026-04-30 14:26 | 62.14477 | 130.15858 | 10437 ft | 294 kts | 132° |
| 2026-04-30 14:26 | 62.11038 | 130.21359 | 11295 ft | 329 kts | 151° |
| 2026-04-30 14:27 | 62.08852 | 130.23291 | 11754 ft | 347 kts | 161° |
| 2026-04-30 14:27 | 62.06463 | 130.24390 | 12233 ft | 364 kts | 172° |
| 2026-04-30 14:27 | 62.03892 | 130.24525 | 12739 ft | 381 kts | 183° |
| 2026-04-30 14:28 | 61.98655 | 130.21341 | 14096 ft | 406 kts | 206° |
| 2026-04-30 14:28 | 61.96231 | 130.18385 | 15022 ft | 413 kts | 209° |
| 2026-04-30 14:28 | 61.93656 | 130.15404 | 16084 ft | 417 kts | 206° |
| 2026-04-30 14:28 | 61.91050 | 130.12669 | 17142 ft | 421 kts | 204° |
| 2026-04-30 14:29 | 61.85675 | 130.07579 | 19030 ft | 433 kts | 202° |
| 2026-04-30 14:29 | 61.81040 | 130.03503 | 20539 ft | 442 kts | 201° |
| 2026-04-30 14:30 | 61.71405 | 129.95428 | 23394 ft | 460 kts | 200° |
| 2026-04-30 14:31 | 61.65255 | 129.91580 | 24928 ft | 468 kts | 187° |
| 2026-04-30 14:31 | 61.58747 | 129.91690 | 26304 ft | 474 kts | 171° |
| 2026-04-30 14:31 | 61.55516 | 129.92589 | 27006 ft | 479 kts | 171° |
| 2026-04-30 14:32 | 61.48722 | 129.94521 | 28373 ft | 488 kts | 171° |
| 2026-04-30 14:32 | 61.45261 | 129.95497 | 29040 ft | 493 kts | 171° |
| 2026-04-30 14:32 | 61.41840 | 129.96458 | 29738 ft | 495 kts | 171° |
| 2026-04-30 14:33 | 61.38221 | 129.97472 | 30557 ft | 494 kts | 171° |
| 2026-04-30 14:33 | 61.31464 | 129.99355 | 31809 ft | 492 kts | 171° |
| 2026-04-30 14:33 | 61.28062 | 130.00297 | 32293 ft | 493 kts | 171° |
| 2026-04-30 14:34 | 61.24696 | 130.01230 | 32779 ft | 493 kts | 171° |
| 2026-04-30 14:34 | 61.21300 | 130.02167 | 33242 ft | 493 kts | 171° |
| 2026-04-30 14:34 | 61.17916 | 130.03099 | 33669 ft | 494 kts | 172° |
| 2026-04-30 14:34 | 61.14534 | 130.04028 | 34105 ft | 493 kts | 172° |
| 2026-04-30 14:35 | 61.07802 | 130.05872 | 35165 ft | 491 kts | 172° |
| 2026-04-30 14:35 | 61.04439 | 130.06790 | 35684 ft | 489 kts | 172° |
| 2026-04-30 14:35 | 61.01099 | 130.07700 | 36120 ft | 489 kts | 172° |
| 2026-04-30 14:36 | 60.97731 | 130.08615 | 36481 ft | 490 kts | 172° |
| 2026-04-30 14:36 | 60.94321 | 130.09540 | 36779 ft | 493 kts | 172° |
| 2026-04-30 14:36 | 60.90949 | 130.10454 | 36848 ft | 495 kts | 172° |
| 2026-04-30 14:37 | 60.84174 | 130.12280 | 36853 ft | 492 kts | 172° |
| 2026-04-30 14:37 | 60.77398 | 130.14101 | 36849 ft | 493 kts | 172° |
| 2026-04-30 14:38 | 60.70457 | 130.15958 | 36846 ft | 493 kts | 172° |
| 2026-04-30 14:38 | 60.63463 | 130.17819 | 36847 ft | 493 kts | 172° |
| 2026-04-30 14:39 | 60.56533 | 130.19656 | 36851 ft | 493 kts | 172° |
| 2026-04-30 14:39 | 60.49615 | 130.21483 | 36853 ft | 493 kts | 172° |
| 2026-04-30 14:40 | 60.39439 | 130.24156 | 36850 ft | 493 kts | 172° |
| 2026-04-30 14:40 | 60.32622 | 130.25935 | 36848 ft | 493 kts | 172° |
| 2026-04-30 14:41 | 60.25872 | 130.27692 | 36845 ft | 493 kts | 172° |
| 2026-04-30 14:41 | 60.19084 | 130.29450 | 36846 ft | 492 kts | 172° |
| 2026-04-30 14:42 | 60.12332 | 130.31192 | 36843 ft | 492 kts | 172° |
| 2026-04-30 14:42 | 60.05572 | 130.32928 | 36844 ft | 492 kts | 172° |
| 2026-04-30 14:43 | 59.98786 | 130.34665 | 36840 ft | 493 kts | 172° |
| 2026-04-30 14:43 | 59.91930 | 130.36412 | 36834 ft | 493 kts | 172° |
| 2026-04-30 14:44 | 59.85158 | 130.38130 | 36830 ft | 493 kts | 172° |
| 2026-04-30 14:44 | 59.78400 | 130.39838 | 36821 ft | 492 kts | 172° |
| 2026-04-30 14:45 | 59.71626 | 130.41542 | 36816 ft | 491 kts | 172° |
| 2026-04-30 14:45 | 59.64850 | 130.43240 | 36816 ft | 492 kts | 172° |
| 2026-04-30 14:46 | 59.57962 | 130.44959 | 36814 ft | 493 kts | 172° |
| 2026-04-30 14:46 | 59.51170 | 130.46648 | 36812 ft | 493 kts | 172° |
| 2026-04-30 14:47 | 59.44415 | 130.48320 | 36814 ft | 493 kts | 172° |
| 2026-04-30 14:47 | 59.37603 | 130.50000 | 36818 ft | 492 kts | 172° |
| 2026-04-30 14:48 | 59.30862 | 130.51656 | 36819 ft | 491 kts | 172° |
| 2026-04-30 14:48 | 59.24044 | 130.53323 | 36816 ft | 492 kts | 172° |
| 2026-04-30 14:49 | 59.17136 | 130.55006 | 36819 ft | 492 kts | 172° |
| 2026-04-30 14:49 | 59.10267 | 130.56673 | 36816 ft | 492 kts | 172° |
| 2026-04-30 14:50 | 59.00155 | 130.59114 | 36811 ft | 492 kts | 172° |
| 2026-04-30 14:51 | 58.89992 | 130.61552 | 36821 ft | 491 kts | 172° |
| 2026-04-30 14:52 | 58.79884 | 130.63963 | 36818 ft | 491 kts | 172° |
| 2026-04-30 14:52 | 58.73260 | 130.66930 | 36817 ft | 491 kts | 158° |
| 2026-04-30 14:52 | 58.70142 | 130.69658 | 36821 ft | 492 kts | 154° |
| 2026-04-30 14:53 | 58.60954 | 130.78282 | 36807 ft | 493 kts | 154° |
| 2026-04-30 14:54 | 58.48718 | 130.89667 | 36759 ft | 492 kts | 154° |
| 2026-04-30 14:55 | 58.39119 | 130.98524 | 36755 ft | 491 kts | 154° |
| 2026-04-30 14:56 | 58.25673 | 131.10835 | 36756 ft | 491 kts | 154° |
| 2026-04-30 14:57 | 58.15940 | 131.19682 | 36750 ft | 492 kts | 154° |
| 2026-04-30 14:58 | 58.03614 | 131.30806 | 36768 ft | 490 kts | 154° |
| 2026-04-30 14:58 | 57.94221 | 131.39226 | 36768 ft | 491 kts | 154° |
| 2026-04-30 15:00 | 57.78854 | 131.52896 | 36746 ft | 492 kts | 154° |
| 2026-04-30 15:01 | 57.66560 | 131.63741 | 36713 ft | 491 kts | 154° |
| 2026-04-30 15:01 | 57.57332 | 131.71826 | 36679 ft | 491 kts | 155° |
| 2026-04-30 15:02 | 57.51045 | 131.77309 | 36669 ft | 491 kts | 155° |
| 2026-04-30 15:03 | 57.35678 | 131.90834 | 36699 ft | 490 kts | 155° |
| 2026-04-30 15:04 | 57.20332 | 132.04228 | 36689 ft | 490 kts | 155° |
| 2026-04-30 15:06 | 57.04907 | 132.17563 | 36666 ft | 490 kts | 155° |
| 2026-04-30 15:07 | 56.92575 | 132.28136 | 36641 ft | 492 kts | 155° |
| 2026-04-30 15:08 | 56.80246 | 132.38628 | 36674 ft | 492 kts | 155° |
| 2026-04-30 15:09 | 56.64793 | 132.51672 | 36653 ft | 491 kts | 156° |
| 2026-04-30 15:10 | 56.52427 | 132.62027 | 36642 ft | 490 kts | 156° |
| 2026-04-30 15:11 | 56.33820 | 132.77466 | 36625 ft | 491 kts | 157° |
| 2026-04-30 15:13 | 56.18347 | 132.90178 | 36626 ft | 490 kts | 157° |
| 2026-04-30 15:14 | 55.96617 | 133.07704 | 36617 ft | 491 kts | 158° |
| 2026-04-30 15:17 | 55.67993 | 133.30443 | 36585 ft | 490 kts | 158° |
| 2026-04-30 15:19 | 55.42896 | 133.50076 | 36649 ft | 491 kts | 158° |